Погода Пабнана неделю

Пабна, Бангладеш

20 - 26 апреля
  • 20апреля
    Сегодня
    +24°
    +41°
    Ясно и безоблачно
    ВремяПогодаТемператураВлажностьДавлениеВетер, м/сВероятность осадков
    00:00Ясно и безоблачно+28°C58 %750 мм0.6 м/с2 %
    03:00Ясно и безоблачно+27°C71 %749 мм4.6 м/с2 %
    06:00Ясно и безоблачно+25°C74 %749 мм0.3 м/с2 %
    09:00Ясно и безоблачно+32°C44 %751 мм1.1 м/с2 %
    12:00Ясно и безоблачно+38°C24 %751 мм1.8 м/с2 %
    15:00Ясно и безоблачно+41°C20 %748 мм1.7 м/с2 %
    18:00Ясно и безоблачно+36°C34 %748 мм0.4 м/с2 %
    21:00Ясно и безоблачно+30°C45 %750 мм0.3 м/с2 %
  • 21апреля
    Воскресенье
    +24°
    +42°
    Небольшая облачность
    ВремяПогодаТемператураВлажностьДавлениеВетер, м/сВероятность осадков
    00:00Ясно и безоблачно+28°C55 %750 мм0.8 м/с2 %
    03:00Ясно и безоблачно+27°C73 %750 мм3.1 м/с2 %
    06:00Ясно и безоблачно+25°C82 %751 мм0.2 м/с2 %
    09:00Ясно и безоблачно+32°C36 %753 мм0.9 м/с2 %
    12:00Ясно и безоблачно+38°C21 %752 мм1.3 м/с2 %
    15:00Небольшая облачность+41°C20 %750 мм1.6 м/с2 %
    18:00Ясно и безоблачно+37°C30 %750 мм0.2 м/с2 %
    21:00Ясно и безоблачно+30°C37 %752 мм0.4 м/с2 %
  • 22апреля
    Понедельник
    +25°
    +42°
    Облачно с прояснениями
    ВремяПогодаТемператураВлажностьДавлениеВетер, м/сВероятность осадков
    00:00Облачно с прояснениями+29°C45 %752 мм0.7 м/с2 %
    03:00Ясно и безоблачно+27°C58 %751 мм3.6 м/с2 %
    06:00Ясно и безоблачно+24°C72 %752 мм0.3 м/с2 %
    09:00Ясно и безоблачно+32°C47 %754 мм0.8 м/с2 %
    12:00Облачно с прояснениями+39°C22 %753 мм1.3 м/с2 %
    15:00Облачно с прояснениями+41°C20 %752 мм1.7 м/с2 %
    18:00Облачно с прояснениями+36°C48 %752 мм0.5 м/с2 %
    21:00Облачно с прояснениями+31°C32 %753 мм0.3 м/с2 %
  • 23апреля
    Вторник
    +25°
    +42°
    Ясно и безоблачно
    ВремяПогодаТемператураВлажностьДавлениеВетер, м/сВероятность осадков
    00:00Облачно с прояснениями+30°C31 %753 мм0.6 м/с2 %
    03:00Облачно с прояснениями+28°C36 %752 мм2.3 м/с2 %
    06:00Облачно с прояснениями+26°C57 %752 мм0.2 м/с2 %
    09:00Небольшая облачность+33°C37 %753 мм0.9 м/с2 %
    12:00Ясно и безоблачно+39°C24 %753 мм1.3 м/с2 %
    15:00Ясно и безоблачно+42°C21 %751 мм1.4 м/с2 %
    18:00Практически безоблачно+37°C30 %750 мм0.2 м/с2 %
    21:00Ясно и безоблачно+32°C41 %752 мм0.9 м/с2 %
  • 24апреля
    Среда
    +24°
    +43°
    Ясно и безоблачно
    ВремяПогодаТемператураВлажностьДавлениеВетер, м/сВероятность осадков
    00:00Ясно и безоблачно+29°C46 %752 мм0.7 м/с2 %
    03:00Ясно и безоблачно+28°C48 %751 мм3.6 м/с2 %
    06:00Ясно и безоблачно+26°C56 %752 мм0.4 м/с2 %
    09:00Ясно и безоблачно+33°C40 %753 мм0.9 м/с2 %
    12:00Ясно и безоблачно+40°C21 %753 мм1.4 м/с2 %
    15:00Ясно и безоблачно+42°C17 %751 мм1.7 м/с2 %
    18:00Ясно и безоблачно+37°C30 %750 мм0.2 м/с2 %
    21:00Ясно и безоблачно+31°C32 %752 мм0.5 м/с2 %
Мы используем cookies
Соглашаюсь